createdAt,value
2018-06-16T00:01:02.512Z,16.80
2018-06-16T00:06:00.935Z,16.80
2018-06-16T00:08:30.189Z,16.80
2018-06-16T00:10:59.432Z,16.80
2018-06-16T00:13:28.669Z,16.80
2018-06-16T00:15:57.960Z,16.70
2018-06-16T00:18:27.155Z,16.70
2018-06-16T00:20:56.459Z,16.50
2018-06-16T00:23:25.691Z,16.40
2018-06-16T00:25:54.924Z,16.20
2018-06-16T00:28:24.180Z,16.10
2018-06-16T00:30:53.456Z,16.10
2018-06-16T00:33:22.759Z,16.10
2018-06-16T00:35:52.024Z,16.00
2018-06-16T00:38:21.608Z,16.00
2018-06-16T00:40:50.964Z,16.10
2018-06-16T00:43:20.189Z,16.10
2018-06-16T00:45:49.416Z,16.20
2018-06-16T00:48:18.667Z,16.20
2018-06-16T00:50:47.951Z,16.30
2018-06-16T00:53:17.184Z,16.30
2018-06-16T00:55:46.431Z,16.30
2018-06-16T00:58:15.660Z,16.20
2018-06-16T01:00:44.928Z,16.10
2018-06-16T01:03:14.153Z,16.20
2018-06-16T01:05:43.388Z,16.00
2018-06-16T01:08:12.656Z,16.00
2018-06-16T01:10:42.023Z,16.00
2018-06-16T01:13:11.219Z,15.90
2018-06-16T01:15:40.448Z,15.90
2018-06-16T01:18:09.721Z,15.90
2018-06-16T01:20:39.019Z,15.90
2018-06-16T01:23:08.256Z,15.60
2018-06-16T01:25:37.449Z,15.60
2018-06-16T01:28:06.676Z,15.70
2018-06-16T01:30:35.920Z,15.70
2018-06-16T01:33:05.148Z,15.70
2018-06-16T01:35:34.357Z,15.70
2018-06-16T01:38:03.645Z,15.70
2018-06-16T01:40:32.913Z,15.60
2018-06-16T01:43:02.444Z,15.60
2018-06-16T01:45:31.677Z,15.50
2018-06-16T01:48:00.920Z,15.50
2018-06-16T01:50:30.221Z,15.50
2018-06-16T01:52:59.447Z,15.40
2018-06-16T01:55:28.679Z,15.30
2018-06-16T01:57:57.912Z,15.30
2018-06-16T02:00:27.219Z,15.20
2018-06-16T02:02:56.439Z,15.20
2018-06-16T02:05:25.644Z,15.20
2018-06-16T02:07:54.868Z,15.20
2018-06-16T02:10:24.146Z,15.20
2018-06-16T02:12:53.441Z,15.20
2018-06-16T02:15:23.004Z,15.20
2018-06-16T02:17:52.248Z,15.30
2018-06-16T02:20:21.615Z,15.20
2018-06-16T02:22:50.841Z,15.10
2018-06-16T02:25:20.038Z,15.10
2018-06-16T02:27:49.243Z,15.10
2018-06-16T02:30:18.441Z,15.20
2018-06-16T02:32:47.640Z,15.30
2018-06-16T02:35:16.840Z,15.30
2018-06-16T02:37:46.044Z,15.20
2018-06-16T02:40:15.233Z,15.10
2018-06-16T02:42:44.473Z,15.00
2018-06-16T02:47:42.435Z,14.90
2018-06-16T02:50:11.721Z,14.80
2018-06-16T02:52:40.951Z,14.80
2018-06-16T02:55:10.112Z,14.80
2018-06-16T02:57:39.316Z,14.80
2018-06-16T03:00:08.543Z,14.80
2018-06-16T03:02:37.789Z,14.60
2018-06-16T03:05:07.028Z,14.60
2018-06-16T03:07:36.241Z,14.50
2018-06-16T03:10:05.714Z,14.30
2018-06-16T03:12:34.914Z,14.30
2018-06-16T03:15:04.225Z,14.30
2018-06-16T03:17:33.784Z,14.20
2018-06-16T03:20:03.293Z,14.20
2018-06-16T03:22:32.566Z,14.20
2018-06-16T03:25:01.820Z,14.30
2018-06-16T03:27:31.052Z,14.40
2018-06-16T03:30:00.288Z,14.40
2018-06-16T03:32:29.609Z,14.40
2018-06-16T03:34:58.813Z,14.40
2018-06-16T03:37:28.019Z,14.50
2018-06-16T03:39:57.212Z,14.50
2018-06-16T03:42:26.504Z,14.60
2018-06-16T03:44:55.716Z,14.60
2018-06-16T03:47:24.956Z,14.70
2018-06-16T03:52:22.976Z,14.70
2018-06-16T03:54:52.223Z,14.50
2018-06-16T03:57:21.464Z,14.40
2018-06-16T03:59:50.764Z,14.40
2018-06-16T04:02:20.092Z,14.50
2018-06-16T04:04:49.320Z,14.60
2018-06-16T04:07:18.548Z,14.50
2018-06-16T04:09:47.788Z,14.60
2018-06-16T04:12:17.085Z,14.50
2018-06-16T04:14:46.291Z,14.50
2018-06-16T04:17:21.124Z,14.50
2018-06-16T04:19:51.751Z,14.60
2018-06-16T04:22:21.570Z,14.70
2018-06-16T04:24:51.168Z,14.70
2018-06-16T04:27:20.372Z,14.80
2018-06-16T04:29:49.568Z,14.80
2018-06-16T04:32:18.836Z,14.80
2018-06-16T04:34:48.114Z,14.80
2018-06-16T04:37:17.440Z,14.90
2018-06-16T04:39:46.672Z,14.90
2018-06-16T04:42:15.935Z,15.00
2018-06-16T04:44:45.161Z,15.10
2018-06-16T04:47:14.381Z,15.20
2018-06-16T04:49:43.593Z,15.30
2018-06-16T04:52:12.885Z,15.40
2018-06-16T04:54:42.159Z,15.40
2018-06-16T04:57:11.393Z,15.50
2018-06-16T04:59:40.633Z,15.60
2018-06-16T05:02:09.957Z,15.50
2018-06-16T05:04:39.168Z,15.50
2018-06-16T05:07:08.362Z,15.50
2018-06-16T05:09:37.556Z,15.50
2018-06-16T05:12:06.827Z,15.40
2018-06-16T05:14:36.061Z,15.40
2018-06-16T05:17:05.355Z,15.30
2018-06-16T05:19:34.558Z,15.20
2018-06-16T05:22:03.820Z,15.20
2018-06-16T05:24:33.082Z,15.20
2018-06-16T05:27:02.525Z,15.20
2018-06-16T05:29:32.243Z,15.20
2018-06-16T05:32:01.538Z,15.20
2018-06-16T05:34:30.788Z,15.20
2018-06-16T05:37:00.093Z,15.30
2018-06-16T05:39:29.361Z,15.40
2018-06-16T05:41:58.700Z,15.60
2018-06-16T05:44:27.998Z,15.80
2018-06-16T05:46:57.276Z,15.80
2018-06-16T05:49:26.495Z,15.60
2018-06-16T05:51:55.873Z,15.50
2018-06-16T05:54:25.113Z,15.50
2018-06-16T05:56:54.880Z,15.60
2018-06-16T05:59:24.941Z,15.70
2018-06-16T06:01:55.084Z,15.70
2018-06-16T06:04:24.631Z,15.90
2018-06-16T06:06:54.161Z,16.30
2018-06-16T06:09:23.837Z,16.50
2018-06-16T06:11:53.474Z,16.80
2018-06-16T06:19:21.381Z,17.10
2018-06-16T06:21:50.979Z,17.20
2018-06-16T06:24:20.249Z,17.40
2018-06-16T06:26:49.492Z,17.60
2018-06-16T06:29:18.851Z,17.70
2018-06-16T06:31:48.288Z,18.00
2018-06-16T06:34:18.048Z,18.10
2018-06-16T06:36:47.303Z,18.20
2018-06-16T06:39:16.577Z,18.30
2018-06-16T06:43:15.096Z,18.30
2018-06-16T06:45:44.375Z,18.30
2018-06-16T06:48:13.710Z,18.50
2018-06-16T06:53:11.742Z,18.60
2018-06-16T06:55:41.006Z,18.50
2018-06-16T06:58:10.243Z,18.50
2018-06-16T07:00:39.580Z,18.60
2018-06-16T07:03:09.104Z,18.60
2018-06-16T07:05:38.432Z,18.70
2018-06-16T07:08:07.974Z,18.60
2018-06-16T07:10:37.268Z,18.70
2018-06-16T07:13:06.584Z,18.70
2018-06-16T07:15:35.841Z,18.80
2018-06-16T07:18:05.143Z,18.80
2018-06-16T07:20:34.762Z,18.70
2018-06-16T07:23:04.124Z,18.80
2018-06-16T07:25:33.414Z,19.00
2018-06-16T07:28:02.684Z,19.10
2018-06-16T07:30:32.168Z,19.10
2018-06-16T07:33:01.513Z,19.00
2018-06-16T07:35:30.896Z,19.00
2018-06-16T07:38:00.469Z,19.00
2018-06-16T07:40:29.837Z,19.30
2018-06-16T07:42:59.184Z,19.40
2018-06-16T07:45:28.488Z,19.50
2018-06-16T07:47:57.861Z,19.50
2018-06-16T07:50:27.240Z,19.70
2018-06-16T07:52:56.629Z,20.00
2018-06-16T07:55:25.876Z,20.20
2018-06-16T07:57:55.221Z,20.20
2018-06-16T08:00:24.545Z,20.20
2018-06-16T08:02:53.846Z,20.30
2018-06-16T08:05:23.171Z,20.30
2018-06-16T08:07:52.881Z,20.10
2018-06-16T08:10:22.591Z,20.20
2018-06-16T08:12:51.921Z,20.30
2018-06-16T08:15:21.765Z,20.40
2018-06-16T08:17:51.005Z,20.50
2018-06-16T08:20:20.348Z,20.70
2018-06-16T08:22:49.603Z,20.90
2018-06-16T08:25:18.856Z,20.90
2018-06-16T08:27:48.156Z,20.80
2018-06-16T08:30:17.472Z,21.00
2018-06-16T08:32:46.881Z,21.20
2018-06-16T08:35:16.140Z,21.30
2018-06-16T08:37:45.461Z,21.40
2018-06-16T08:40:15.170Z,21.50
2018-06-16T08:42:44.700Z,21.60
2018-06-16T08:45:13.976Z,21.70
2018-06-16T08:47:43.297Z,21.60
2018-06-16T08:50:12.692Z,21.70
2018-06-16T08:52:41.980Z,21.80
2018-06-16T08:55:11.372Z,22.00
2018-06-16T08:57:40.708Z,22.10
2018-06-16T09:00:09.996Z,22.10
2018-06-16T09:02:39.323Z,22.10
2018-06-16T09:05:08.607Z,22.40
2018-06-16T09:07:37.940Z,22.60
2018-06-16T09:10:07.288Z,22.70
2018-06-16T09:12:36.621Z,22.80
2018-06-16T09:15:06.148Z,23.00
2018-06-16T09:17:35.411Z,23.40
2018-06-16T09:20:04.808Z,23.70
2018-06-16T09:22:34.262Z,23.80
2018-06-16T09:25:03.575Z,23.80
2018-06-16T09:27:32.876Z,23.90
2018-06-16T09:30:02.154Z,23.90
2018-06-16T09:32:31.485Z,23.80
2018-06-16T09:35:00.824Z,23.90
2018-06-16T09:37:30.132Z,24.20
2018-06-16T09:39:59.388Z,24.40
2018-06-16T09:42:28.743Z,24.70
2018-06-16T09:44:58.125Z,24.80
2018-06-16T09:49:56.497Z,24.50
2018-06-16T09:52:25.805Z,24.50
2018-06-16T09:54:55.197Z,24.60
2018-06-16T09:57:24.481Z,25.00
2018-06-16T09:59:53.788Z,25.20
2018-06-16T10:02:23.219Z,25.40
2018-06-16T10:04:52.578Z,25.00
2018-06-16T10:07:21.862Z,25.20
2018-06-16T10:09:51.517Z,25.30
2018-06-16T10:12:20.880Z,25.40
2018-06-16T10:14:50.321Z,24.70
2018-06-16T10:17:19.974Z,24.60
2018-06-16T10:19:49.617Z,24.80
2018-06-16T10:22:18.948Z,24.60
2018-06-16T10:24:48.322Z,24.60
2018-06-16T10:27:17.552Z,24.80
2018-06-16T10:29:46.844Z,24.60
2018-06-16T10:32:16.147Z,24.90
2018-06-16T10:34:45.428Z,24.80
2018-06-16T10:37:14.681Z,24.80
2018-06-16T10:39:43.952Z,25.00
2018-06-16T10:42:13.272Z,24.80
2018-06-16T10:44:42.532Z,24.60
2018-06-16T10:47:11.800Z,24.80
2018-06-16T10:49:41.104Z,25.30
2018-06-16T10:52:10.701Z,25.80
2018-06-16T10:54:39.994Z,25.90
2018-06-16T10:57:09.231Z,25.80
2018-06-16T10:59:38.485Z,25.90
2018-06-16T11:02:07.871Z,25.60
2018-06-16T11:04:37.139Z,25.50
2018-06-16T11:07:06.416Z,25.20
2018-06-16T11:09:35.764Z,25.10
2018-06-16T11:12:05.077Z,24.80
2018-06-16T11:14:34.431Z,24.70
2018-06-16T11:17:03.648Z,24.50
2018-06-16T11:19:33.188Z,24.50
2018-06-16T11:22:02.568Z,25.20
2018-06-16T11:24:32.243Z,25.80
2018-06-16T11:27:01.549Z,26.60
2018-06-16T11:29:30.772Z,26.70
2018-06-16T11:32:00.057Z,26.30
2018-06-16T11:34:29.353Z,26.70
2018-06-16T11:36:58.619Z,26.60
2018-06-16T11:39:27.866Z,26.10
2018-06-16T11:41:57.191Z,25.80
2018-06-16T11:46:55.259Z,25.30
2018-06-16T11:49:24.960Z,25.10
2018-06-16T11:51:54.627Z,25.40
2018-06-16T11:54:23.983Z,25.60
2018-06-16T11:56:53.535Z,25.70
2018-06-16T11:59:22.857Z,26.30
2018-06-16T12:01:52.265Z,26.70
2018-06-16T12:04:22.392Z,26.50
2018-06-16T12:06:52.032Z,26.40
2018-06-16T12:11:50.112Z,26.90
2018-06-16T12:14:19.988Z,27.20
2018-06-16T12:16:49.508Z,27.60
2018-06-16T12:19:18.901Z,27.40
2018-06-16T12:21:48.270Z,27.90
2018-06-16T12:24:17.642Z,27.80
2018-06-16T12:29:16.085Z,28.40
2018-06-16T12:31:45.513Z,28.70
2018-06-16T12:34:14.815Z,28.60
2018-06-16T12:36:44.138Z,27.80
2018-06-16T12:39:13.395Z,27.00
2018-06-16T12:41:42.753Z,27.90
2018-06-16T12:44:12.072Z,28.70
2018-06-16T12:46:41.316Z,28.10
2018-06-16T12:49:10.625Z,27.80
2018-06-16T12:51:40.115Z,27.10
2018-06-16T12:54:09.480Z,27.00
2018-06-16T12:56:38.845Z,26.60
2018-06-16T12:59:08.259Z,26.20
2018-06-16T13:01:38.011Z,27.50
2018-06-16T13:04:07.334Z,27.50
2018-06-16T13:06:36.749Z,27.80
2018-06-16T13:09:07.375Z,28.40
2018-06-16T13:11:36.736Z,28.40
2018-06-16T13:14:06.187Z,28.70
2018-06-16T13:16:35.501Z,29.60
2018-06-16T13:19:04.884Z,30.00
2018-06-16T13:21:34.224Z,30.10
2018-06-16T13:24:03.532Z,29.70
2018-06-16T13:26:32.841Z,30.30
2018-06-16T13:29:02.089Z,30.60
2018-06-16T13:31:31.504Z,31.10
2018-06-16T13:34:01.290Z,31.00
2018-06-16T13:36:30.657Z,31.60
2018-06-16T13:39:00.108Z,32.30
2018-06-16T13:41:31.511Z,32.70
2018-06-16T13:44:00.758Z,32.30
2018-06-16T13:46:30.088Z,31.80
2018-06-16T13:48:59.455Z,31.50
2018-06-16T13:51:28.820Z,32.00
2018-06-16T13:53:58.136Z,32.20
2018-06-16T13:56:27.454Z,31.90
2018-06-16T13:58:56.731Z,32.60
2018-06-16T14:01:26.095Z,32.00
2018-06-16T14:06:24.168Z,31.60
2018-06-16T14:08:53.472Z,32.00
2018-06-16T14:11:22.761Z,32.00
2018-06-16T14:13:52.034Z,31.90
2018-06-16T14:16:21.350Z,31.20
2018-06-16T14:18:50.587Z,30.00
2018-06-16T14:23:48.608Z,31.10
2018-06-16T14:26:17.888Z,31.90
2018-06-16T14:28:47.192Z,32.60
2018-06-16T14:31:16.564Z,33.00
2018-06-16T14:33:45.830Z,34.10
2018-06-16T14:36:15.212Z,34.20
2018-06-16T14:38:44.597Z,34.80
2018-06-16T14:41:14.018Z,34.90
2018-06-16T14:43:43.320Z,34.60
2018-06-16T14:46:12.656Z,34.30
2018-06-16T14:48:41.945Z,33.70
2018-06-16T14:51:11.280Z,32.90
2018-06-16T14:53:40.567Z,31.60
2018-06-16T14:56:09.897Z,30.50
2018-06-16T15:01:07.974Z,29.70
2018-06-16T15:03:37.268Z,29.30
2018-06-16T15:06:06.615Z,29.40
2018-06-16T15:08:36.013Z,29.90
2018-06-16T15:11:05.384Z,29.80
2018-06-16T15:13:34.680Z,30.00
2018-06-16T15:16:04.040Z,29.90
2018-06-16T15:18:33.315Z,29.50
2018-06-16T15:21:02.720Z,29.40
2018-06-16T15:23:31.952Z,29.40
2018-06-16T15:26:01.215Z,29.50
2018-06-16T15:28:30.555Z,29.90
2018-06-16T15:30:59.924Z,29.70
2018-06-16T15:33:29.193Z,29.20
2018-06-16T15:35:58.549Z,29.20
2018-06-16T15:38:27.808Z,28.90
2018-06-16T15:40:57.180Z,28.90
2018-06-16T15:43:26.480Z,29.20
2018-06-16T15:45:55.778Z,29.30
2018-06-16T15:48:25.056Z,29.20
2018-06-16T15:50:54.384Z,28.90
2018-06-16T15:53:23.632Z,29.00
2018-06-16T15:55:52.935Z,29.60
2018-06-16T15:58:22.192Z,30.10
2018-06-16T16:00:51.785Z,30.20
2018-06-16T16:03:21.116Z,30.30
2018-06-16T16:05:50.731Z,30.20
2018-06-16T16:08:20.009Z,30.20
2018-06-16T16:10:49.414Z,29.70
2018-06-16T16:13:18.767Z,29.10
2018-06-16T16:15:48.488Z,29.10
2018-06-16T16:18:18.104Z,28.80
2018-06-16T16:20:47.900Z,29.10
2018-06-16T16:23:17.162Z,29.00
2018-06-16T16:25:46.504Z,29.20
2018-06-16T16:28:15.745Z,29.50
2018-06-16T16:30:45.132Z,29.60
2018-06-16T16:33:16.194Z,30.20
2018-06-16T16:35:45.492Z,30.40
2018-06-16T16:38:14.794Z,29.90
2018-06-16T16:40:45.045Z,29.30
2018-06-16T16:43:14.367Z,28.30
2018-06-16T16:45:43.757Z,27.80
2018-06-16T16:48:13.501Z,27.60
2018-06-16T16:50:42.838Z,27.30
2018-06-16T16:53:12.116Z,27.00
2018-06-16T16:55:41.396Z,26.80
2018-06-16T16:58:10.676Z,26.60
2018-06-16T17:00:40.011Z,26.40
2018-06-16T17:03:10.233Z,26.20
2018-06-16T17:05:39.521Z,26.10
2018-06-16T17:08:08.907Z,25.90
2018-06-16T17:10:38.236Z,25.60
2018-06-16T17:13:07.781Z,25.30
2018-06-16T17:15:37.089Z,25.20
2018-06-16T17:18:06.453Z,24.90
2018-06-16T17:20:36.100Z,24.70
2018-06-16T17:23:05.549Z,24.60
2018-06-16T17:25:34.855Z,24.60
2018-06-16T17:28:04.144Z,24.40
2018-06-16T17:30:33.531Z,24.30
2018-06-16T17:33:02.804Z,24.30
2018-06-16T17:35:32.105Z,24.30
2018-06-16T17:38:01.409Z,24.30
2018-06-16T17:40:31.600Z,24.20
2018-06-16T17:43:01.629Z,24.10
2018-06-16T17:45:30.908Z,24.10
2018-06-16T17:48:00.218Z,24.10
2018-06-16T17:50:29.605Z,24.00
2018-06-16T17:52:58.905Z,24.00
2018-06-16T17:55:28.212Z,23.80
2018-06-16T17:57:57.484Z,23.80
2018-06-16T18:00:26.824Z,23.70
2018-06-16T18:02:56.177Z,23.60
2018-06-16T18:05:25.496Z,23.50
2018-06-16T18:07:54.804Z,23.50
2018-06-16T18:10:24.110Z,23.40
2018-06-16T18:12:53.484Z,23.30
2018-06-16T18:15:22.808Z,23.20
2018-06-16T18:17:52.255Z,23.10
2018-06-16T18:20:21.518Z,23.00
2018-06-16T18:22:50.900Z,22.90
2018-06-16T18:25:20.274Z,22.70
2018-06-16T18:27:49.523Z,22.70
2018-06-16T18:30:18.908Z,22.70
2018-06-16T18:32:48.272Z,22.60
2018-06-16T18:35:17.559Z,22.50
2018-06-16T18:37:46.831Z,22.40
2018-06-16T18:40:16.101Z,22.40
2018-06-16T18:42:45.470Z,22.40
2018-06-16T18:45:14.797Z,22.40
2018-06-16T18:47:44.067Z,22.30
2018-06-16T18:50:13.398Z,22.40
2018-06-16T18:52:42.808Z,22.40
2018-06-16T18:55:12.140Z,22.40
2018-06-16T18:57:41.427Z,22.30
2018-06-16T19:00:10.769Z,22.30
2018-06-16T19:02:40.149Z,22.30
2018-06-16T19:05:09.525Z,22.30
2018-06-16T19:07:38.814Z,22.20
2018-06-16T19:10:08.052Z,22.00
2018-06-16T19:12:37.321Z,22.00
2018-06-16T19:15:06.688Z,22.00
2018-06-16T19:17:36.011Z,22.00
2018-06-16T19:20:05.617Z,21.90
2018-06-16T19:22:34.915Z,21.80
2018-06-16T19:25:04.193Z,21.60
2018-06-16T19:27:33.557Z,21.60
2018-06-16T19:30:02.853Z,21.60
2018-06-16T19:35:00.943Z,21.40
2018-06-16T19:37:30.214Z,21.40
2018-06-16T19:39:59.721Z,21.40
2018-06-16T19:42:29.048Z,21.40
2018-06-16T19:44:58.316Z,21.30
2018-06-16T19:47:27.562Z,21.20
2018-06-16T19:49:56.879Z,21.30
2018-06-16T19:52:26.436Z,21.30
2018-06-16T19:54:55.755Z,21.20
2018-06-16T19:57:25.025Z,21.00
2018-06-16T19:59:54.349Z,21.00
2018-06-16T20:02:23.776Z,21.10
2018-06-16T20:04:53.041Z,21.10
2018-06-16T20:07:22.324Z,21.10
2018-06-16T20:09:51.606Z,21.10
2018-06-16T20:12:21.008Z,20.90
2018-06-16T20:14:50.269Z,20.80
2018-06-16T20:19:48.297Z,20.70
2018-06-16T20:22:17.680Z,20.70
2018-06-16T20:24:46.968Z,20.50
2018-06-16T20:27:16.266Z,20.50
2018-06-16T20:29:45.597Z,20.50
2018-06-16T20:32:14.964Z,20.50
2018-06-16T20:34:44.601Z,20.40
2018-06-16T20:37:13.900Z,20.30
2018-06-16T20:39:43.155Z,20.30
2018-06-16T20:42:12.404Z,20.30
2018-06-16T20:44:41.632Z,20.10
2018-06-16T20:47:10.857Z,20.10
2018-06-16T20:49:40.097Z,20.00
2018-06-16T20:52:09.555Z,19.80
2018-06-16T20:54:38.832Z,19.90
2018-06-16T20:57:08.101Z,19.90
2018-06-16T20:59:37.357Z,19.90
2018-06-16T21:02:06.636Z,19.90
2018-06-16T21:04:35.985Z,19.80
2018-06-16T21:09:35.624Z,19.80
2018-06-16T21:12:04.925Z,19.70
2018-06-16T21:14:34.156Z,19.80
2018-06-16T21:17:03.400Z,19.70
2018-06-16T21:19:32.619Z,19.70
2018-06-16T21:22:01.957Z,19.70
2018-06-16T21:24:31.224Z,19.70
2018-06-16T21:27:00.445Z,19.60
2018-06-16T21:29:29.644Z,19.60
2018-06-16T21:31:58.917Z,19.50
2018-06-16T21:34:28.216Z,19.50
2018-06-16T21:36:57.516Z,19.70
2018-06-16T21:39:27.227Z,19.70
2018-06-16T21:41:56.529Z,19.90
2018-06-16T21:44:25.727Z,19.90
2018-06-16T21:46:55.155Z,19.60
2018-06-16T21:49:24.360Z,19.70
2018-06-16T21:51:53.627Z,19.90
2018-06-16T21:54:22.861Z,20.10
2018-06-16T21:56:52.201Z,20.10
2018-06-16T21:59:21.460Z,20.20
2018-06-16T22:01:50.692Z,20.30
2018-06-16T22:04:19.925Z,20.30
2018-06-16T22:06:49.156Z,20.30
2018-06-16T22:09:18.458Z,20.20
2018-06-16T22:11:47.930Z,20.10
2018-06-16T22:14:17.153Z,20.20
2018-06-16T22:16:46.381Z,20.20
2018-06-16T22:19:15.624Z,20.20
2018-06-16T22:21:44.955Z,20.30
2018-06-16T22:24:14.183Z,20.20
2018-06-16T22:26:43.424Z,20.30
2018-06-16T22:29:12.688Z,20.20
2018-06-16T22:31:42.025Z,20.30
2018-06-16T22:34:11.295Z,20.30
2018-06-16T22:36:40.520Z,20.30
2018-06-16T22:39:11.896Z,20.30
2018-06-16T22:41:41.172Z,20.30
2018-06-16T22:44:10.780Z,20.30
2018-06-16T22:46:40.008Z,20.30
2018-06-16T22:49:09.208Z,20.30
2018-06-16T22:51:38.472Z,20.20
2018-06-16T22:54:07.728Z,20.10
2018-06-16T22:56:36.932Z,20.10
2018-06-16T22:59:06.226Z,20.00
2018-06-16T23:01:35.480Z,20.00
2018-06-16T23:04:04.772Z,20.00
2018-06-16T23:06:33.996Z,20.10
2018-06-16T23:09:03.396Z,20.10
2018-06-16T23:11:32.671Z,20.10
2018-06-16T23:14:01.976Z,20.10
2018-06-16T23:16:31.203Z,20.30
2018-06-16T23:19:00.396Z,20.20
2018-06-16T23:21:29.646Z,20.20
2018-06-16T23:23:58.869Z,20.10
2018-06-16T23:26:28.092Z,20.10
2018-06-16T23:28:57.304Z,20.00
2018-06-16T23:31:26.564Z,19.90
2018-06-16T23:33:55.816Z,19.90
2018-06-16T23:36:25.015Z,20.00
2018-06-16T23:38:54.260Z,19.90
2018-06-16T23:41:23.560Z,19.80
2018-06-16T23:43:52.792Z,19.70
2018-06-16T23:46:22.055Z,19.70
2018-06-16T23:48:51.768Z,19.70
2018-06-16T23:51:21.056Z,19.90
2018-06-16T23:53:50.291Z,20.00
2018-06-16T23:56:19.492Z,20.00
2018-06-16T23:58:48.722Z,20.00
